Time;durP1;ratioP1;P1;durP2;ratioP2;P2;SDS_P1;SDS_P2;PMS_P1;PMS_P2;Temp;Humidity;BMP_temperature;BMP_pressure;BME280_temperature;BME280_humidity;BME280_pressure;Samples;Min_cycle;Max_cycle;Signal;HPM_P1;HPM_P2
2021/01/08 00:00:43;;;;;;;17.60;11.63;;;;;;;2.18;70.94;100164.28;5043384;28;20503;-72
2021/01/08 00:03:08;;;;;;;20.70;12.38;;;;;;;2.15;70.95;100166.81;5044138;28;20041;-73
2021/01/08 00:05:33;;;;;;;19.95;12.00;;;;;;;2.10;71.33;100170.16;5043796;28;20042;-72
2021/01/08 00:07:59;;;;;;;21.00;13.18;;;;;;;2.13;71.12;100165.91;5046475;28;20068;-72
2021/01/08 00:10:24;;;;;;;23.50;13.75;;;;;;;2.12;71.54;100158.94;5046392;28;20043;-72
2021/01/08 00:12:49;;;;;;;21.17;12.10;;;;;;;2.13;71.78;100168.50;5043425;28;20033;-73
2021/01/08 00:15:15;;;;;;;22.80;13.13;;;;;;;2.09;71.85;100166.66;5042955;28;20096;-73
2021/01/08 00:17:40;;;;;;;19.30;11.20;;;;;;;2.12;71.62;100163.25;5044462;28;20041;-73
2021/01/08 00:20:07;;;;;;;20.75;12.80;;;;;;;2.15;71.20;100166.81;5046238;28;20045;-73
2021/01/08 00:22:32;;;;;;;20.52;13.02;;;;;;;2.11;71.62;100170.19;5045327;28;20475;-73
2021/01/08 00:24:58;;;;;;;20.88;12.55;;;;;;;2.09;71.45;100165.78;5042730;28;20121;-73
2021/01/08 00:27:23;;;;;;;22.55;12.88;;;;;;;2.03;71.59;100170.88;5042650;28;20124;-73
2021/01/08 00:29:49;;;;;;;22.40;13.90;;;;;;;1.93;71.81;100167.16;5043964;28;20036;-73
2021/01/08 00:32:15;;;;;;;21.90;13.60;;;;;;;1.88;72.51;100161.84;5045625;28;20442;-72
2021/01/08 00:34:40;;;;;;;23.17;13.43;;;;;;;1.80;72.17;100157.31;5044647;28;20079;-72
2021/01/08 00:37:06;;;;;;;21.35;13.30;;;;;;;1.78;72.33;100154.66;5042527;28;20037;-73
2021/01/08 00:39:31;;;;;;;21.50;12.93;;;;;;;1.77;72.62;100158.13;5041603;28;20128;-73
2021/01/08 00:41:56;;;;;;;21.50;13.25;;;;;;;1.74;72.54;100166.75;5044630;28;20029;-73
2021/01/08 00:44:22;;;;;;;23.00;14.32;;;;;;;1.68;72.79;100152.72;5043027;28;20491;-72
2021/01/08 00:46:49;;;;;;;21.20;12.90;;;;;;;1.73;72.82;100157.19;5041980;28;20029;-72
2021/01/08 00:49:15;;;;;;;23.38;12.88;;;;;;;1.77;72.89;100149.44;5039682;28;20025;-72
2021/01/08 00:51:41;;;;;;;22.55;13.82;;;;;;;1.84;73.06;100152.22;5042749;28;20064;-73
2021/01/08 00:54:07;;;;;;;23.30;13.85;;;;;;;1.90;72.75;100154.09;5042835;28;20388;-72
2021/01/08 00:56:34;;;;;;;25.02;14.32;;;;;;;1.87;73.43;100156.63;5041995;28;20171;-73
2021/01/08 00:59:14;;;;;;;23.50;13.30;;;;;;;1.98;73.08;100157.75;5039648;28;20510;-73
2021/01/08 01:01:39;;;;;;;22.85;12.30;;;;;;;2.02;72.53;100145.66;5042333;28;20037;-73
2021/01/08 01:04:05;;;;;;;24.13;14.57;;;;;;;2.02;73.26;100154.38;5044122;28;20039;-73
2021/01/08 01:06:32;;;;;;;21.33;12.93;;;;;;;2.07;73.04;100147.53;5044000;28;20041;-72
2021/01/08 01:08:58;;;;;;;26.75;14.50;;;;;;;2.12;72.67;100150.22;5040972;28;20445;-73
2021/01/08 01:11:24;;;;;;;23.98;14.77;;;;;;;2.13;72.62;100152.88;5040806;28;20076;-72
2021/01/08 01:13:51;;;;;;;24.55;14.57;;;;;;;2.12;72.64;100150.22;5043388;28;20032;-72
2021/01/08 01:16:20;;;;;;;22.27;13.68;;;;;;;2.06;73.18;100153.56;5044214;28;20170;-73
2021/01/08 01:18:56;;;;;;;25.42;15.40;;;;;;;2.11;73.15;100151.97;5041638;28;20032;-72
2021/01/08 01:21:21;;;;;;;24.60;13.63;;;;;;;2.17;72.64;100159.91;5040735;28;20037;-72
2021/01/08 01:23:47;;;;;;;22.02;13.18;;;;;;;2.17;72.62;100154.72;5042661;28;20042;-72
2021/01/08 01:26:12;;;;;;;25.65;15.43;;;;;;;2.12;72.95;100152.81;5043907;28;20128;-72
2021/01/08 01:28:38;;;;;;;23.60;13.75;;;;;;;2.22;72.62;100153.91;5042527;28;20083;-72
2021/01/08 01:31:04;;;;;;;23.20;14.98;;;;;;;2.23;72.70;100155.66;5040454;28;20041;-73
2021/01/08 01:33:30;;;;;;;22.35;14.05;;;;;;;2.14;73.16;100153.75;5042765;28;20114;-73
2021/01/08 01:35:55;;;;;;;23.92;15.30;;;;;;;2.16;72.91;100154.66;5043822;28;20578;-73
2021/01/08 01:38:22;;;;;;;23.30;14.55;;;;;;;2.19;72.95;100154.72;5026512;28;502884;-73
2021/01/08 01:40:48;;;;;;;20.60;12.68;;;;;;;2.25;72.60;100156.59;5042105;28;20044;-73
2021/01/08 01:43:14;;;;;;;25.05;14.88;;;;;;;2.32;72.45;100158.47;5040983;28;20526;-73
2021/01/08 01:45:39;;;;;;;25.88;13.90;;;;;;;2.33;72.51;100157.63;5042685;28;20140;-73
2021/01/08 01:48:05;;;;;;;25.35;13.98;;;;;;;2.29;72.37;100158.41;5044586;28;20068;-72
2021/01/08 01:50:31;;;;;;;24.02;14.98;;;;;;;2.30;72.45;100157.56;5044245;28;20033;-73
2021/01/08 01:52:56;;;;;;;23.65;15.02;;;;;;;2.36;72.51;100150.75;5040816;28;20041;-73
2021/01/08 01:55:22;;;;;;;22.50;13.35;;;;;;;2.37;72.34;100160.31;5041100;28;20045;-73
2021/01/08 01:57:52;;;;;;;20.85;13.10;;;;;;;2.39;72.59;100148.22;5043606;28;20038;-73
2021/01/08 02:00:18;;;;;;;21.75;14.10;;;;;;;2.40;72.57;100149.97;5044375;28;20083;-73
2021/01/08 02:03:03;;;;;;;20.83;13.68;;;;;;;2.37;72.50;100154.25;5041870;28;20458;-73
2021/01/08 02:05:29;;;;;;;22.30;13.50;;;;;;;2.40;72.61;100151.69;5040922;28;20041;-72
2021/01/08 02:08:06;;;;;;;21.33;12.98;;;;;;;2.42;72.29;100155.22;5032350;28;20502;-72
2021/01/08 02:10:39;;;;;;;20.42;14.13;;;;;;;2.38;72.69;100141.28;5039460;28;20049;-72
2021/01/08 02:13:08;;;;;;;20.63;13.25;;;;;;;2.32;72.85;100150.66;5043868;28;20033;-73
2021/01/08 02:15:34;;;;;;;22.33;13.82;;;;;;;2.35;72.92;100148.13;5043326;28;20456;-73
2021/01/08 02:18:01;;;;;;;20.35;12.85;;;;;;;2.34;72.76;100152.47;5040631;28;20043;-73
2021/01/08 02:20:27;;;;;;;23.42;13.75;;;;;;;2.34;72.53;100155.06;5040577;28;20037;-73
2021/01/08 02:23:14;;;;;;;22.83;14.80;;;;;;;2.30;72.84;100145.41;5043357;28;20082;-73
2021/01/08 02:25:40;;;;;;;21.80;13.75;;;;;;;2.33;72.96;100139.38;5042429;28;20033;-73
2021/01/08 02:28:05;;;;;;;22.25;13.30;;;;;;;2.37;73.11;100146.44;5040425;28;20482;-73
2021/01/08 02:30:32;;;;;;;22.77;13.88;;;;;;;2.40;72.65;100146.50;5040556;28;20415;-73
2021/01/08 02:32:59;;;;;;;19.60;12.65;;;;;;;2.40;72.76;100141.28;5043446;28;20040;-73
2021/01/08 02:35:25;;;;;;;22.52;13.27;;;;;;;2.45;72.59;100139.66;5043759;28;20072;-73
2021/01/08 02:37:51;;;;;;;22.02;13.82;;;;;;;2.39;72.63;100145.63;5040449;28;20037;-73
2021/01/08 02:40:17;;;;;;;21.02;13.15;;;;;;;2.47;72.65;100139.69;5040082;28;20042;-73
2021/01/08 02:42:45;;;;;;;20.75;13.63;;;;;;;2.47;72.74;100143.16;5041639;28;20045;-73
2021/01/08 02:45:12;;;;;;;20.40;12.52;;;;;;;2.32;72.49;100137.66;5043514;28;20198;-73
2021/01/08 02:47:37;;;;;;;20.52;13.50;;;;;;;2.28;73.00;100130.59;5042347;28;20033;-72
2021/01/08 02:50:03;;;;;;;20.58;12.93;;;;;;;2.30;72.91;100135.00;5038621;28;20056;-72
2021/01/08 02:52:28;;;;;;;23.13;15.27;;;;;;;2.30;72.98;100139.31;5038350;28;20037;-73
2021/01/08 02:54:56;;;;;;;21.00;13.00;;;;;;;2.30;72.86;100139.31;5043361;28;20047;-73
2021/01/08 02:57:23;;;;;;;19.58;13.40;;;;;;;2.28;73.26;100134.09;5043313;28;20076;-73
2021/01/08 02:59:49;;;;;;;20.90;13.07;;;;;;;2.27;73.03;100140.16;5040464;28;20036;-73
2021/01/08 03:02:14;;;;;;;22.35;14.65;;;;;;;2.23;73.36;100138.34;5039568;28;20041;-73
2021/01/08 03:04:40;;;;;;;21.13;13.25;;;;;;;2.24;73.12;100134.00;5041187;28;20037;-73
2021/01/08 03:07:05;;;;;;;22.98;13.68;;;;;;;2.23;73.74;100132.22;5043185;28;20094;-73
2021/01/08 03:09:31;;;;;;;22.00;14.10;;;;;;;2.17;73.74;100128.69;5042793;28;20049;-73
2021/01/08 03:11:57;;;;;;;21.17;14.30;;;;;;;2.12;73.97;100134.59;5039696;28;20034;-73
2021/01/08 03:14:23;;;;;;;22.70;14.48;;;;;;;2.16;73.74;100134.72;5039235;28;20029;-73
2021/01/08 03:16:49;;;;;;;18.77;12.48;;;;;;;2.21;73.89;100136.53;5041044;28;20083;-73
2021/01/08 03:19:14;;;;;;;20.63;12.90;;;;;;;2.29;73.77;100132.38;5043021;28;20028;-73
2021/01/08 03:21:39;;;;;;;20.20;13.13;;;;;;;2.34;73.61;100131.63;5040128;28;20033;-73
2021/01/08 03:24:05;;;;;;;20.73;13.52;;;;;;;2.36;73.71;100134.28;5039259;28;20067;-72
2021/01/08 03:26:31;;;;;;;22.90;15.13;;;;;;;2.33;73.21;100128.97;5039776;28;20037;-72
2021/01/08 03:28:56;;;;;;;20.33;13.20;;;;;;;2.31;73.57;100128.97;5042781;28;20095;-72
2021/01/08 03:31:21;;;;;;;20.17;13.35;;;;;;;2.28;74.22;100134.09;5049519;28;20033;-72
2021/01/08 03:33:47;;;;;;;21.70;12.77;;;;;;;2.32;73.87;100128.09;5040202;28;20033;-73
2021/01/08 03:36:12;;;;;;;20.85;13.27;;;;;;;2.32;74.23;100132.44;5039450;28;20099;-73
2021/01/08 03:38:37;;;;;;;22.90;14.65;;;;;;;2.28;74.37;100128.00;5040431;28;20030;-73
2021/01/08 03:41:03;;;;;;;23.85;14.82;;;;;;;2.29;74.66;100127.16;5041521;28;20029;-73
2021/01/08 03:43:28;;;;;;;21.73;14.18;;;;;;;2.23;74.63;100129.63;5041141;28;20057;-73
2021/01/08 03:45:53;;;;;;;21.42;13.88;;;;;;;2.21;74.35;100128.75;5039414;28;20029;-73
2021/01/08 03:48:18;;;;;;;21.42;14.10;;;;;;;2.17;74.54;100123.47;5039275;28;20036;-73
2021/01/08 03:50:44;;;;;;;21.15;13.13;;;;;;;2.19;74.60;100118.28;5041239;28;20033;-73
2021/01/08 03:53:09;;;;;;;18.75;11.38;;;;;;;2.24;74.21;100120.97;5042393;28;20051;-73
2021/01/08 03:55:34;;;;;;;22.25;13.73;;;;;;;2.23;74.29;100119.22;5041890;28;20107;-72
2021/01/08 03:58:00;;;;;;;24.15;14.10;;;;;;;2.17;74.18;100120.88;5039159;28;20496;-72
2021/01/08 04:00:25;;;;;;;19.65;12.80;;;;;;;2.11;74.58;100120.72;5039446;28;20025;-72
2021/01/08 04:02:51;;;;;;;22.25;13.75;;;;;;;2.12;74.57;100109.47;5041768;28;20044;-73
2021/01/08 04:05:16;;;;;;;22.80;14.30;;;;;;;2.12;74.64;100108.56;5042495;28;20055;-72
2021/01/08 04:07:41;;;;;;;19.80;13.32;;;;;;;2.15;74.52;100113.88;5040630;28;20404;-73
2021/01/08 04:10:07;;;;;;;20.83;13.18;;;;;;;2.12;74.27;100109.47;5037688;28;20563;-73
2021/01/08 04:12:33;;;;;;;21.75;14.63;;;;;;;2.10;74.56;100116.38;5039229;28;20033;-72
2021/01/08 04:14:58;;;;;;;25.30;15.07;;;;;;;2.08;74.36;100107.63;5042455;28;20043;-72
2021/01/08 04:17:23;;;;;;;23.92;15.63;;;;;;;2.08;74.63;100112.84;5042569;28;20033;-72
2021/01/08 04:19:49;;;;;;;26.10;16.63;;;;;;;1.95;74.91;100110.81;5039667;28;20033;-72
2021/01/08 04:22:14;;;;;;;23.33;14.93;;;;;;;1.89;75.35;100111.56;5038742;28;20052;-72
2021/01/08 04:24:39;;;;;;;23.67;14.50;;;;;;;1.92;75.26;100110.75;5040193;28;20034;-72
2021/01/08 04:27:04;;;;;;;21.73;14.40;;;;;;;1.92;75.53;100114.25;5042318;28;20043;-73
2021/01/08 04:29:30;;;;;;;22.60;14.85;;;;;;;1.95;75.52;100113.44;5042056;28;20036;-73
2021/01/08 04:31:55;;;;;;;23.67;15.18;;;;;;;1.97;75.23;100114.34;5039684;28;20040;-73
2021/01/08 04:34:20;;;;;;;23.48;13.90;;;;;;;1.98;75.51;100109.16;5042223;28;20033;-72
2021/01/08 04:36:46;;;;;;;22.50;13.80;;;;;;;1.99;75.04;100112.63;5044789;28;20056;-72
2021/01/08 04:39:11;;;;;;;22.75;14.77;;;;;;;1.98;75.16;100110.88;5045711;28;20406;-72
2021/01/08 04:41:37;;;;;;;21.48;13.18;;;;;;;1.99;75.32;100117.84;5045200;28;20435;-72
2021/01/08 04:44:03;;;;;;;26.30;16.20;;;;;;;2.01;75.20;100110.06;5041988;28;20499;-72
2021/01/08 04:46:31;;;;;;;23.52;14.27;;;;;;;2.04;75.08;100116.22;5034530;28;20057;-72
2021/01/08 04:49:00;;;;;;;21.73;13.55;;;;;;;2.07;75.40;100111.09;5036557;28;20488;-72
2021/01/08 04:51:27;;;;;;;20.13;13.57;;;;;;;2.11;75.35;100115.50;5045650;28;20047;-72
2021/01/08 04:53:52;;;;;;;22.15;14.90;;;;;;;2.17;74.91;100110.47;5042147;28;20033;-73
2021/01/08 04:56:21;;;;;;;22.15;14.38;;;;;;;2.15;75.18;100113.88;5042326;28;20060;-72
2021/01/08 04:58:47;;;;;;;24.35;14.50;;;;;;;2.12;74.88;100109.47;5044378;28;20556;-72
2021/01/08 05:01:12;;;;;;;23.00;14.63;;;;;;;2.07;75.44;100110.19;5045461;28;20174;-72
2021/01/08 05:03:38;;;;;;;22.27;14.55;;;;;;;2.00;75.92;100110.94;5043803;28;20138;-72
2021/01/08 05:06:03;;;;;;;21.05;13.75;;;;;;;2.01;75.71;100110.94;5042045;28;20029;-72
2021/01/08 05:08:29;;;;;;;20.17;12.93;;;;;;;2.05;75.50;100117.13;5041830;28;20029;-72
2021/01/08 05:10:57;;;;;;;20.20;13.15;;;;;;;2.04;75.42;100111.00;5045188;28;20041;-73
2021/01/08 05:13:33;;;;;;;24.88;15.65;;;;;;;2.04;75.77;100110.13;5044950;28;20075;-72
2021/01/08 05:16:01;;;;;;;21.90;14.60;;;;;;;2.03;75.54;100109.25;5034292;28;20061;-72
2021/01/08 05:18:30;;;;;;;22.85;15.35;;;;;;;2.06;76.06;100119.75;5041584;28;20030;-72
2021/01/08 05:20:56;;;;;;;22.08;14.30;;;;;;;2.06;75.92;100111.94;5033710;28;20045;-73
2021/01/08 05:23:21;;;;;;;21.63;13.90;;;;;;;2.06;75.74;100111.06;5041361;28;20053;-73
2021/01/08 05:25:47;;;;;;;21.70;14.80;;;;;;;2.03;76.19;100106.66;5044246;28;20035;-72
2021/01/08 05:28:19;;;;;;;23.30;13.98;;;;;;;2.01;76.60;100105.75;5041471;28;20500;-72
2021/01/08 05:30:47;;;;;;;24.65;14.77;;;;;;;2.00;75.93;100104.00;5043448;28;20058;-73
2021/01/08 05:33:15;;;;;;;22.90;14.40;;;;;;;1.97;76.13;100119.56;5044573;28;20114;-73
2021/01/08 05:35:41;;;;;;;21.50;14.20;;;;;;;2.06;76.20;100113.66;5043357;28;20045;-72
2021/01/08 05:38:07;;;;;;;24.70;17.10;;;;;;;2.08;75.85;100110.25;5041296;28;20087;-72
2021/01/08 05:40:33;;;;;;;21.48;13.80;;;;;;;2.09;76.31;100117.19;5041691;28;20090;-72
2021/01/08 05:43:02;;;;;;;24.05;15.75;;;;;;;2.12;76.10;100112.09;5043767;28;20040;-73
2021/01/08 05:45:30;;;;;;;24.50;15.88;;;;;;;2.07;76.36;100121.50;5044221;28;20036;-73
2021/01/08 05:47:58;;;;;;;23.08;16.17;;;;;;;2.05;76.31;100119.72;5033120;28;20455;-72
2021/01/08 05:50:25;;;;;;;21.65;13.55;;;;;;;2.11;76.14;100118.13;5041119;28;20411;-72
2021/01/08 05:53:10;;;;;;;21.23;14.48;;;;;;;2.12;76.15;100119.88;5043619;28;20053;-72
2021/01/08 05:55:38;;;;;;;19.95;13.48;;;;;;;2.17;76.03;100118.25;5043624;28;20055;-72
2021/01/08 05:58:20;;;;;;;22.23;14.23;;;;;;;2.09;76.32;100114.59;5040858;28;20132;-72
2021/01/08 06:01:03;;;;;;;23.02;15.52;;;;;;;1.98;76.50;100122.16;5039347;28;20094;-73
2021/01/08 06:03:30;;;;;;;22.88;14.73;;;;;;;2.00;76.62;100122.22;5040026;28;20032;-72
2021/01/08 06:06:00;;;;;;;22.80;14.57;;;;;;;1.99;76.21;100117.84;5032703;28;20029;-72
2021/01/08 06:08:28;;;;;;;24.63;16.27;;;;;;;2.00;77.08;100123.94;5039375;28;20029;-72
2021/01/08 06:10:56;;;;;;;24.50;15.68;;;;;;;2.02;77.30;100122.22;5043883;28;20045;-72
2021/01/08 06:13:26;;;;;;;25.50;17.42;;;;;;;2.04;76.75;100124.03;5042516;28;20483;-72
2021/01/08 06:15:53;;;;;;;22.58;14.75;;;;;;;2.01;77.29;100121.34;5041038;28;20048;-72
2021/01/08 06:18:20;;;;;;;22.42;15.80;;;;;;;2.01;76.98;100121.34;5040575;28;20499;-72
2021/01/08 06:20:47;;;;;;;20.50;14.13;;;;;;;2.03;77.09;100124.88;5041422;28;20087;-72
2021/01/08 06:23:38;;;;;;;22.48;15.48;;;;;;;1.95;77.58;100126.44;5043614;28;20032;-72
2021/01/08 06:26:05;;;;;;;23.02;15.05;;;;;;;2.00;77.40;100126.56;5033647;28;20484;-72
2021/01/08 06:28:34;;;;;;;24.75;16.02;;;;;;;1.97;77.45;100120.44;5040422;28;20080;-73
2021/01/08 06:31:04;;;;;;;24.02;16.17;;;;;;;2.02;76.94;100120.53;5042409;28;20029;-72
2021/01/08 06:33:34;;;;;;;25.70;16.45;;;;;;;1.98;77.17;100124.78;5043488;28;20041;-72
2021/01/08 06:36:13;;;;;;;24.48;16.17;;;;;;;1.86;77.92;100131.44;5032924;28;20033;-72
2021/01/08 06:38:44;;;;;;;27.15;17.98;;;;;;;1.74;78.28;100127.72;5041210;28;20124;-72
2021/01/08 06:41:13;;;;;;;23.73;15.82;;;;;;;1.75;78.14;100128.59;5042227;28;20037;-72
2021/01/08 06:43:43;;;;;;;23.85;15.98;;;;;;;1.72;78.07;100132.00;5041943;28;20041;-72
2021/01/08 06:46:16;;;;;;;24.88;16.83;;;;;;;1.76;77.89;100140.78;5040002;28;20072;-73
2021/01/08 06:48:46;;;;;;;24.25;16.38;;;;;;;1.75;78.04;100134.66;5041467;28;20412;-72
2021/01/08 06:51:21;;;;;;;22.15;14.85;;;;;;;1.80;78.18;100139.97;5043641;28;20072;-72
2021/01/08 06:53:49;;;;;;;24.40;16.13;;;;;;;1.83;78.04;100132.22;5040651;28;20068;-73
2021/01/08 06:56:27;;;;;;;26.45;17.27;;;;;;;1.85;78.20;100134.88;5039618;28;20045;-72
2021/01/08 06:58:54;;;;;;;28.63;16.95;;;;;;;1.75;78.42;100147.66;5042883;28;20039;-72
2021/01/08 07:01:23;;;;;;;24.35;16.45;;;;;;;1.70;78.50;100153.63;5043227;28;20033;-72
2021/01/08 07:03:50;;;;;;;23.80;15.88;;;;;;;1.71;78.49;100153.66;5040218;28;20047;-72
2021/01/08 07:06:16;;;;;;;25.38;16.75;;;;;;;1.67;78.77;100164.81;5039652;28;20037;-72
2021/01/08 07:08:42;;;;;;;27.55;17.02;;;;;;;1.70;78.91;100162.31;5041252;28;20099;-73
2021/01/08 07:11:21;;;;;;;24.33;15.90;;;;;;;1.79;78.68;100165.97;5043197;28;20048;-73
2021/01/08 07:13:46;;;;;;;25.88;16.23;;;;;;;1.89;78.27;100167.97;5040417;28;20041;-73
2021/01/08 07:16:19;;;;;;;25.60;16.33;;;;;;;1.94;78.46;100166.34;5039631;28;20044;-73
2021/01/08 07:18:44;;;;;;;23.80;16.25;;;;;;;1.90;78.34;100169.69;5044185;28;20190;-72
2021/01/08 07:21:22;;;;;;;23.45;16.35;;;;;;;1.89;78.53;100168.81;5044519;28;20057;-72
2021/01/08 07:23:49;;;;;;;26.00;16.63;;;;;;;1.89;78.70;100173.16;5041660;28;20037;-72
2021/01/08 07:26:17;;;;;;;24.35;15.68;;;;;;;1.94;78.31;100174.16;5043023;28;20044;-73
2021/01/08 07:28:47;;;;;;;28.27;17.15;;;;;;;1.97;78.60;100182.03;5041033;28;20128;-73
2021/01/08 07:31:12;;;;;;;24.00;14.65;;;;;;;2.01;78.40;100178.63;5039439;28;20124;-73
2021/01/08 07:33:47;;;;;;;28.02;17.77;;;;;;;1.98;78.55;100183.75;5040162;28;20119;-73
2021/01/08 07:36:23;;;;;;;27.88;17.85;;;;;;;1.98;78.14;100184.63;5041593;28;20545;-72
2021/01/08 07:38:49;;;;;;;25.25;16.98;;;;;;;2.07;78.13;100184.00;5039975;28;20033;-72
2021/01/08 07:41:38;;;;;;;29.05;18.30;;;;;;;2.06;78.24;100190.03;5039415;28;20112;-72
2021/01/08 07:44:29;;;;;;;25.02;15.52;;;;;;;2.10;78.10;100193.59;5032094;28;20045;-72
2021/01/08 07:46:55;;;;;;;26.98;17.40;;;;;;;2.21;78.10;100193.84;5031155;28;20554;-73
2021/01/08 07:49:26;;;;;;;26.88;17.45;;;;;;;2.24;77.88;100193.91;5039237;28;20073;-72
2021/01/08 07:51:52;;;;;;;26.73;17.80;;;;;;;2.25;77.84;100200.84;5042227;28;20037;-72
2021/01/08 07:54:55;;;;;;;27.25;18.17;;;;;;;2.23;77.74;100197.31;5041120;28;20120;-72
2021/01/08 07:57:21;;;;;;;33.10;19.70;;;;;;;2.26;77.40;100198.28;5034713;28;20381;-72
2021/01/08 07:59:46;;;;;;;23.77;16.08;;;;;;;2.32;77.49;100205.34;5041290;28;20045;-72
2021/01/08 08:02:11;;;;;;;21.85;14.73;;;;;;;2.36;77.58;100201.97;5042321;28;20041;-73
2021/01/08 08:04:37;;;;;;;24.88;16.10;;;;;;;2.39;77.04;100208.13;5041461;28;20029;-73
2021/01/08 08:07:03;;;;;;;22.17;15.35;;;;;;;2.40;77.01;100209.00;5040265;28;20041;-73
2021/01/08 08:09:28;;;;;;;25.52;16.95;;;;;;;2.48;77.13;100206.56;5042931;28;20065;-73
2021/01/08 08:11:54;;;;;;;26.00;16.88;;;;;;;2.51;76.48;100210.09;5046192;28;20127;-72
2021/01/08 08:14:21;;;;;;;26.25;17.05;;;;;;;2.49;76.50;100213.50;5046030;28;20056;-72
2021/01/08 08:16:48;;;;;;;27.45;18.30;;;;;;;2.44;76.91;100218.66;5044029;28;20028;-72
2021/01/08 08:19:14;;;;;;;24.08;15.65;;;;;;;2.53;76.74;100221.44;5042848;28;20400;-72
2021/01/08 08:21:50;;;;;;;24.67;16.77;;;;;;;2.58;76.47;100224.16;5044084;28;20061;-72
2021/01/08 08:24:17;;;;;;;27.65;18.33;;;;;;;2.61;76.20;100227.69;5046041;28;20044;-72
2021/01/08 08:26:44;;;;;;;27.02;17.95;;;;;;;2.61;76.25;100222.47;5044357;28;20098;-72
2021/01/08 08:29:14;;;;;;;24.35;16.00;;;;;;;2.61;76.66;100225.09;5042492;28;20021;-72
2021/01/08 08:31:42;;;;;;;26.15;16.85;;;;;;;2.65;76.58;100233.88;5043969;28;20041;-72
2021/01/08 08:34:09;;;;;;;23.52;15.68;;;;;;;2.70;76.12;100232.22;5044451;28;20487;-72
2021/01/08 08:36:35;;;;;;;24.85;16.38;;;;;;;2.70;76.19;100234.84;5045307;28;20033;-72
2021/01/08 08:39:09;;;;;;;25.98;17.05;;;;;;;2.74;75.78;100235.78;5040979;28;20029;-72
2021/01/08 08:41:37;;;;;;;28.58;17.23;;;;;;;2.69;76.46;100238.28;5043043;28;20048;-73
2021/01/08 08:44:04;;;;;;;24.27;17.20;;;;;;;2.57;76.60;100238.91;5045474;28;20128;-73
2021/01/08 08:46:52;;;;;;;25.45;17.27;;;;;;;2.57;76.92;100236.31;5045715;28;20048;-73
2021/01/08 08:49:20;;;;;;;25.02;16.67;;;;;;;2.72;76.54;100242.66;5035742;28;20507;-72
2021/01/08 08:51:49;;;;;;;23.40;15.73;;;;;;;2.76;76.31;100239.28;5044183;28;20076;-72
2021/01/08 08:54:16;;;;;;;22.98;15.07;;;;;;;2.72;76.10;100242.66;5044062;28;20029;-73
2021/01/08 08:56:58;;;;;;;22.67;15.45;;;;;;;2.70;76.00;100246.97;5043968;28;20032;-73
2021/01/08 08:59:43;;;;;;;21.88;14.77;;;;;;;2.67;76.59;100245.16;5040964;28;20033;-73
2021/01/08 09:02:11;;;;;;;23.52;16.38;;;;;;;2.68;76.70;100243.47;5035599;28;20133;-72
2021/01/08 09:04:53;;;;;;;21.02;14.88;;;;;;;2.71;76.76;100240.91;5042741;28;20052;-72
2021/01/08 09:07:30;;;;;;;20.58;14.25;;;;;;;2.83;76.68;100246.41;5044219;28;20075;-72
2021/01/08 09:10:04;;;;;;;22.80;15.30;;;;;;;2.89;76.24;100243.91;5033781;28;20129;-72
2021/01/08 09:12:46;;;;;;;22.60;15.23;;;;;;;2.93;76.04;100242.22;5041615;28;20042;-72
2021/01/08 09:15:18;;;;;;;21.85;14.75;;;;;;;2.87;76.61;100244.72;5035964;28;20045;-72
2021/01/08 09:17:46;;;;;;;20.30;14.30;;;;;;;2.84;76.26;100241.19;5043283;28;20056;-73
2021/01/08 09:20:15;;;;;;;20.10;14.90;;;;;;;2.90;76.21;100237.84;5045155;28;20116;-72
2021/01/08 09:22:41;;;;;;;20.77;14.20;;;;;;;2.93;76.15;100248.31;5043462;28;20037;-73
2021/01/08 09:25:08;;;;;;;19.58;13.68;;;;;;;2.92;76.17;100245.69;5041667;28;20203;-72
2021/01/08 09:27:35;;;;;;;18.42;13.07;;;;;;;2.80;76.50;100247.22;5042034;28;20041;-72
2021/01/08 09:30:13;;;;;;;19.00;13.18;;;;;;;2.69;76.60;100251.28;5051309;28;20037;-72
2021/01/08 09:32:38;;;;;;;20.35;14.00;;;;;;;2.57;77.00;100251.94;5043543;28;20048;-72
2021/01/08 09:35:09;;;;;;;22.02;14.75;;;;;;;2.66;77.23;100253.84;5041504;28;20038;-72
2021/01/08 09:37:48;;;;;;;20.33;14.18;;;;;;;2.62;77.22;100247.69;5041902;28;20044;-73
2021/01/08 09:40:15;;;;;;;20.23;14.60;;;;;;;2.62;77.52;100258.13;5044841;28;20239;-72
2021/01/08 09:42:41;;;;;;;19.10;14.65;;;;;;;2.67;77.07;100241.69;5042861;28;20051;-73
2021/01/08 09:45:21;;;;;;;21.52;14.73;;;;;;;2.64;77.24;100243.38;5041194;28;20040;-73
2021/01/08 09:47:46;;;;;;;17.70;12.52;;;;;;;2.73;77.20;100247.94;5043539;28;20123;-73
2021/01/08 09:50:26;;;;;;;21.65;15.27;;;;;;;2.78;77.75;100250.63;5044409;28;20077;-73
2021/01/08 09:52:57;;;;;;;21.90;14.82;;;;;;;2.93;77.72;100240.50;5041131;28;20041;-72
2021/01/08 09:55:24;;;;;;;22.17;16.05;;;;;;;2.96;77.37;100245.78;5041120;28;20232;-73
2021/01/08 09:57:53;;;;;;;18.38;13.82;;;;;;;2.97;76.30;100249.28;5043631;28;20407;-72
2021/01/08 10:00:26;;;;;;;21.38;15.45;;;;;;;2.78;77.42;100248.91;5043175;28;20043;-72
2021/01/08 10:02:52;;;;;;;18.30;13.70;;;;;;;2.91;77.35;100251.75;5041152;28;20048;-72
2021/01/08 10:05:20;;;;;;;21.88;14.70;;;;;;;2.94;76.95;100250.09;5040908;28;20029;-72
2021/01/08 10:07:47;;;;;;;19.67;13.52;;;;;;;3.00;76.80;100249.34;5042832;28;20053;-72
2021/01/08 10:10:16;;;;;;;18.27;13.23;;;;;;;2.93;76.97;100258.75;5044128;28;20029;-72
2021/01/08 10:12:53;;;;;;;19.13;13.98;;;;;;;2.90;76.67;100258.69;5042247;28;20135;-72
2021/01/08 10:15:19;;;;;;;18.33;13.20;;;;;;;2.91;76.80;100250.03;5040734;28;20038;-73
2021/01/08 10:17:49;;;;;;;21.10;14.32;;;;;;;3.00;76.97;100260.63;5042682;28;20099;-73
2021/01/08 10:20:16;;;;;;;20.20;14.27;;;;;;;2.97;77.37;100260.56;5043804;28;20037;-73
2021/01/08 10:22:48;;;;;;;19.05;14.13;;;;;;;3.07;77.01;100253.81;5042206;28;20048;-73
2021/01/08 10:25:27;;;;;;;18.27;13.95;;;;;;;3.19;76.83;100255.78;5039204;28;20099;-73
2021/01/08 10:27:53;;;;;;;20.05;15.73;;;;;;;3.23;76.54;100248.06;5043563;28;20548;-73
2021/01/08 10:30:19;;;;;;;16.98;13.18;;;;;;;3.23;75.99;100252.41;5043116;28;20077;-72
2021/01/08 10:32:48;;;;;;;19.00;13.30;;;;;;;3.23;76.46;100247.19;5041558;28;20064;-72
2021/01/08 10:35:14;;;;;;;17.77;12.80;;;;;;;3.25;76.04;100256.78;5040381;28;20046;-72
2021/01/08 10:37:40;;;;;;;18.27;14.13;;;;;;;3.25;75.97;100248.97;5041477;28;20038;-72
2021/01/08 10:40:06;;;;;;;17.50;13.68;;;;;;;3.22;75.76;100255.84;5042341;28;20039;-72
2021/01/08 10:42:32;;;;;;;18.42;14.45;;;;;;;3.10;76.06;100248.66;5043076;28;20056;-73
2021/01/08 10:44:57;;;;;;;19.90;13.45;;;;;;;3.05;76.55;100256.38;5040000;28;20145;-73
2021/01/08 10:47:22;;;;;;;17.05;13.43;;;;;;;3.11;76.30;100252.16;5040099;28;20037;-73
2021/01/08 10:49:48;;;;;;;17.13;12.98;;;;;;;3.08;76.49;100247.75;5042617;28;20408;-73
2021/01/08 10:52:14;;;;;;;19.98;14.60;;;;;;;3.15;76.69;100253.97;5043249;28;20406;-73
2021/01/08 10:54:39;;;;;;;19.80;14.43;;;;;;;3.09;76.36;100244.28;5042150;28;20124;-72
2021/01/08 10:57:04;;;;;;;17.33;12.45;;;;;;;3.02;76.60;100251.13;5038718;28;20048;-72
2021/01/08 10:59:29;;;;;;;17.83;13.00;;;;;;;3.00;77.13;100244.13;5040032;28;20116;-72
2021/01/08 11:01:55;;;;;;;17.23;12.43;;;;;;;3.02;76.81;100247.63;5043149;28;20040;-72
2021/01/08 11:04:20;;;;;;;18.60;14.05;;;;;;;2.89;77.29;100243.03;5043099;28;20037;-72
2021/01/08 11:06:45;;;;;;;20.13;14.15;;;;;;;2.96;76.75;100253.63;5041201;28;20036;-72
2021/01/08 11:09:11;;;;;;;19.55;14.15;;;;;;;2.98;76.97;100243.19;5039680;28;20038;-72
2021/01/08 11:11:36;;;;;;;19.65;14.02;;;;;;;2.95;76.79;100249.22;5040602;28;20040;-72
2021/01/08 11:14:02;;;;;;;18.10;12.98;;;;;;;3.01;76.94;100241.56;5041586;28;20025;-72
2021/01/08 11:16:27;;;;;;;20.30;14.55;;;;;;;2.98;76.70;100246.69;5042869;28;20044;-72
2021/01/08 11:18:53;;;;;;;17.02;12.70;;;;;;;2.89;76.77;100249.13;5039987;28;20029;-72
2021/01/08 11:21:22;;;;;;;19.20;14.20;;;;;;;2.85;77.38;100245.56;5041550;28;20510;-73